sensor_id;sensor_type;location;lat;lon;timestamp;temperature;humidity
10530;DHT22;5313;48.834;9.228;2022-09-02T00:01:01;16.90;99.90
10530;DHT22;5313;48.834;9.228;2022-09-02T00:03:30;16.40;99.90
10530;DHT22;5313;48.834;9.228;2022-09-02T00:05:56;16.50;99.90
10530;DHT22;5313;48.834;9.228;2022-09-02T00:08:22;16.50;99.90
10530;DHT22;5313;48.834;9.228;2022-09-02T00:10:48;16.50;99.90
10530;DHT22;5313;48.834;9.228;2022-09-02T00:13:15;16.50;99.90
10530;DHT22;5313;48.834;9.228;2022-09-02T00:15:43;16.50;99.90
10530;DHT22;5313;48.834;9.228;2022-09-02T00:18:08;16.50;99.90
10530;DHT22;5313;48.834;9.228;2022-09-02T00:20:40;16.50;99.90
10530;DHT22;5313;48.834;9.228;2022-09-02T00:23:07;16.40;99.90
10530;DHT22;5313;48.834;9.228;2022-09-02T00:25:34;16.30;99.90
10530;DHT22;5313;48.834;9.228;2022-09-02T00:28:01;16.40;99.90
10530;DHT22;5313;48.834;9.228;2022-09-02T00:30:27;16.30;99.90
10530;DHT22;5313;48.834;9.228;2022-09-02T00:32:53;16.20;99.90
10530;DHT22;5313;48.834;9.228;2022-09-02T00:35:18;16.00;99.90
10530;DHT22;5313;48.834;9.228;2022-09-02T00:37:44;15.70;99.90
10530;DHT22;5313;48.834;9.228;2022-09-02T00:40:10;15.40;99.90
10530;DHT22;5313;48.834;9.228;2022-09-02T00:42:36;15.40;99.90
10530;DHT22;5313;48.834;9.228;2022-09-02T00:45:03;16.10;99.90
10530;DHT22;5313;48.834;9.228;2022-09-02T00:47:31;15.30;99.90
10530;DHT22;5313;48.834;9.228;2022-09-02T00:49:57;15.20;99.90
10530;DHT22;5313;48.834;9.228;2022-09-02T00:52:31;15.10;99.90
10530;DHT22;5313;48.834;9.228;2022-09-02T00:55:24;15.00;99.90
10530;DHT22;5313;48.834;9.228;2022-09-02T00:58:04;14.70;99.90
10530;DHT22;5313;48.834;9.228;2022-09-02T01:00:36;14.60;99.90
10530;DHT22;5313;48.834;9.228;2022-09-02T01:03:06;14.50;99.90
10530;DHT22;5313;48.834;9.228;2022-09-02T01:05:42;14.40;99.90
10530;DHT22;5313;48.834;9.228;2022-09-02T01:08:18;14.40;99.90
10530;DHT22;5313;48.834;9.228;2022-09-02T01:10:46;14.50;99.90
10530;DHT22;5313;48.834;9.228;2022-09-02T01:13:16;14.50;99.90
10530;DHT22;5313;48.834;9.228;2022-09-02T01:15:51;14.30;99.90
10530;DHT22;5313;48.834;9.228;2022-09-02T01:18:20;14.20;99.90
10530;DHT22;5313;48.834;9.228;2022-09-02T01:20:47;14.10;99.90
10530;DHT22;5313;48.834;9.228;2022-09-02T01:23:14;14.10;99.90
10530;DHT22;5313;48.834;9.228;2022-09-02T01:25:41;14.00;99.90
10530;DHT22;5313;48.834;9.228;2022-09-02T01:28:11;14.00;99.90
10530;DHT22;5313;48.834;9.228;2022-09-02T01:30:39;14.00;99.90
10530;DHT22;5313;48.834;9.228;2022-09-02T01:33:06;13.90;99.90
10530;DHT22;5313;48.834;9.228;2022-09-02T01:35:32;13.90;99.90
10530;DHT22;5313;48.834;9.228;2022-09-02T01:37:58;13.90;99.90
10530;DHT22;5313;48.834;9.228;2022-09-02T01:40:25;13.90;99.90
10530;DHT22;5313;48.834;9.228;2022-09-02T01:43:11;13.80;99.90
10530;DHT22;5313;48.834;9.228;2022-09-02T01:45:38;13.70;99.90
10530;DHT22;5313;48.834;9.228;2022-09-02T01:48:05;13.80;99.90
10530;DHT22;5313;48.834;9.228;2022-09-02T01:50:32;13.80;99.90
10530;DHT22;5313;48.834;9.228;2022-09-02T01:52:59;13.70;99.90
10530;DHT22;5313;48.834;9.228;2022-09-02T01:55:26;13.70;99.90
10530;DHT22;5313;48.834;9.228;2022-09-02T01:57:51;13.60;99.90
10530;DHT22;5313;48.834;9.228;2022-09-02T02:00:17;13.60;99.90
10530;DHT22;5313;48.834;9.228;2022-09-02T02:02:43;13.60;99.90
10530;DHT22;5313;48.834;9.228;2022-09-02T02:05:09;13.60;99.90
10530;DHT22;5313;48.834;9.228;2022-09-02T02:07:35;13.50;99.90
10530;DHT22;5313;48.834;9.228;2022-09-02T02:10:00;13.50;99.90
10530;DHT22;5313;48.834;9.228;2022-09-02T02:12:26;13.50;99.90
10530;DHT22;5313;48.834;9.228;2022-09-02T02:14:52;13.50;99.90
10530;DHT22;5313;48.834;9.228;2022-09-02T02:17:17;13.60;99.90
10530;DHT22;5313;48.834;9.228;2022-09-02T02:19:43;13.60;99.90
10530;DHT22;5313;48.834;9.228;2022-09-02T02:22:09;13.70;99.90
10530;DHT22;5313;48.834;9.228;2022-09-02T02:24:34;13.70;99.90
10530;DHT22;5313;48.834;9.228;2022-09-02T02:27:01;13.70;99.90
10530;DHT22;5313;48.834;9.228;2022-09-02T02:29:26;13.70;99.90
10530;DHT22;5313;48.834;9.228;2022-09-02T02:31:52;13.60;99.90
10530;DHT22;5313;48.834;9.228;2022-09-02T02:34:18;13.70;99.90
10530;DHT22;5313;48.834;9.228;2022-09-02T02:36:44;13.70;99.90
10530;DHT22;5313;48.834;9.228;2022-09-02T02:39:10;13.70;99.90
10530;DHT22;5313;48.834;9.228;2022-09-02T02:41:37;13.60;99.90
10530;DHT22;5313;48.834;9.228;2022-09-02T02:44:04;13.50;99.90
10530;DHT22;5313;48.834;9.228;2022-09-02T02:46:29;13.50;99.90
10530;DHT22;5313;48.834;9.228;2022-09-02T02:48:58;13.50;99.90
10530;DHT22;5313;48.834;9.228;2022-09-02T02:51:23;13.60;99.90
10530;DHT22;5313;48.834;9.228;2022-09-02T02:53:49;13.80;99.90
10530;DHT22;5313;48.834;9.228;2022-09-02T02:56:14;13.90;99.90
10530;DHT22;5313;48.834;9.228;2022-09-02T02:58:40;13.80;99.90
10530;DHT22;5313;48.834;9.228;2022-09-02T03:01:06;13.70;99.90
10530;DHT22;5313;48.834;9.228;2022-09-02T03:03:32;13.80;99.90
10530;DHT22;5313;48.834;9.228;2022-09-02T03:05:58;13.60;99.90
10530;DHT22;5313;48.834;9.228;2022-09-02T03:08:24;13.70;99.90
10530;DHT22;5313;48.834;9.228;2022-09-02T03:10:50;13.60;99.90
10530;DHT22;5313;48.834;9.228;2022-09-02T03:13:19;13.40;99.90
10530;DHT22;5313;48.834;9.228;2022-09-02T03:15:46;13.40;99.90
10530;DHT22;5313;48.834;9.228;2022-09-02T03:18:12;13.50;99.90
10530;DHT22;5313;48.834;9.228;2022-09-02T03:20:39;13.50;99.90
10530;DHT22;5313;48.834;9.228;2022-09-02T03:23:05;13.50;99.90
10530;DHT22;5313;48.834;9.228;2022-09-02T03:25:32;13.40;99.90
10530;DHT22;5313;48.834;9.228;2022-09-02T03:27:58;13.30;99.90
10530;DHT22;5313;48.834;9.228;2022-09-02T03:30:27;13.20;99.90
10530;DHT22;5313;48.834;9.228;2022-09-02T03:32:57;13.20;99.90
10530;DHT22;5313;48.834;9.228;2022-09-02T03:35:24;13.20;99.90
10530;DHT22;5313;48.834;9.228;2022-09-02T03:37:50;13.20;99.90
10530;DHT22;5313;48.834;9.228;2022-09-02T03:40:22;13.20;99.90
10530;DHT22;5313;48.834;9.228;2022-09-02T03:42:48;13.10;99.90
10530;DHT22;5313;48.834;9.228;2022-09-02T03:45:14;13.00;99.90
10530;DHT22;5313;48.834;9.228;2022-09-02T03:47:42;13.00;99.90
10530;DHT22;5313;48.834;9.228;2022-09-02T03:50:17;13.00;99.90
10530;DHT22;5313;48.834;9.228;2022-09-02T03:52:43;13.00;99.90
10530;DHT22;5313;48.834;9.228;2022-09-02T03:55:09;13.00;99.90
10530;DHT22;5313;48.834;9.228;2022-09-02T03:57:35;13.10;99.90
10530;DHT22;5313;48.834;9.228;2022-09-02T04:00:05;13.10;99.90
10530;DHT22;5313;48.834;9.228;2022-09-02T04:02:32;13.20;99.90
10530;DHT22;5313;48.834;9.228;2022-09-02T04:04:58;13.20;99.90
10530;DHT22;5313;48.834;9.228;2022-09-02T04:07:23;13.20;99.90
10530;DHT22;5313;48.834;9.228;2022-09-02T04:09:49;13.20;99.90
10530;DHT22;5313;48.834;9.228;2022-09-02T04:12:15;13.20;99.90
10530;DHT22;5313;48.834;9.228;2022-09-02T04:14:40;13.00;99.90
10530;DHT22;5313;48.834;9.228;2022-09-02T04:17:06;12.80;99.90
10530;DHT22;5313;48.834;9.228;2022-09-02T04:19:32;12.80;99.90
10530;DHT22;5313;48.834;9.228;2022-09-02T04:21:58;12.80;99.90
10530;DHT22;5313;48.834;9.228;2022-09-02T04:24:23;12.90;99.90
10530;DHT22;5313;48.834;9.228;2022-09-02T04:26:49;12.80;99.90
10530;DHT22;5313;48.834;9.228;2022-09-02T04:29:15;12.80;99.90
10530;DHT22;5313;48.834;9.228;2022-09-02T04:31:40;12.80;99.90
10530;DHT22;5313;48.834;9.228;2022-09-02T04:34:06;13.00;99.90
10530;DHT22;5313;48.834;9.228;2022-09-02T04:36:32;12.70;99.90
10530;DHT22;5313;48.834;9.228;2022-09-02T04:38:57;12.70;99.90
10530;DHT22;5313;48.834;9.228;2022-09-02T04:41:26;12.80;99.90
10530;DHT22;5313;48.834;9.228;2022-09-02T04:43:54;12.70;99.90
10530;DHT22;5313;48.834;9.228;2022-09-02T04:46:20;12.70;99.90
10530;DHT22;5313;48.834;9.228;2022-09-02T04:48:46;12.60;99.90
10530;DHT22;5313;48.834;9.228;2022-09-02T04:51:15;12.50;99.90
10530;DHT22;5313;48.834;9.228;2022-09-02T04:53:42;14.20;99.90
10530;DHT22;5313;48.834;9.228;2022-09-02T04:56:10;15.00;99.90
10530;DHT22;5313;48.834;9.228;2022-09-02T04:58:37;16.00;99.90
10530;DHT22;5313;48.834;9.228;2022-09-02T05:01:07;16.80;99.90
10530;DHT22;5313;48.834;9.228;2022-09-02T05:03:34;16.50;99.90
10530;DHT22;5313;48.834;9.228;2022-09-02T05:06:03;16.70;99.90
10530;DHT22;5313;48.834;9.228;2022-09-02T05:08:29;16.20;99.90
10530;DHT22;5313;48.834;9.228;2022-09-02T05:10:55;16.40;99.90
10530;DHT22;5313;48.834;9.228;2022-09-02T05:13:21;16.40;99.90
10530;DHT22;5313;48.834;9.228;2022-09-02T05:15:48;15.70;99.90
10530;DHT22;5313;48.834;9.228;2022-09-02T05:18:13;15.80;99.90
10530;DHT22;5313;48.834;9.228;2022-09-02T05:20:40;16.00;99.90
10530;DHT22;5313;48.834;9.228;2022-09-02T05:23:08;16.10;99.90
10530;DHT22;5313;48.834;9.228;2022-09-02T05:25:38;16.00;99.90
10530;DHT22;5313;48.834;9.228;2022-09-02T05:28:05;15.60;99.90
10530;DHT22;5313;48.834;9.228;2022-09-02T05:30:33;16.20;99.90
10530;DHT22;5313;48.834;9.228;2022-09-02T05:32:59;16.00;99.90
10530;DHT22;5313;48.834;9.228;2022-09-02T05:35:24;15.70;99.90
10530;DHT22;5313;48.834;9.228;2022-09-02T05:37:50;15.80;99.90
10530;DHT22;5313;48.834;9.228;2022-09-02T05:40:15;16.30;99.90
10530;DHT22;5313;48.834;9.228;2022-09-02T05:42:41;16.50;99.90
10530;DHT22;5313;48.834;9.228;2022-09-02T05:45:08;16.60;99.90
10530;DHT22;5313;48.834;9.228;2022-09-02T05:47:34;15.80;99.90
10530;DHT22;5313;48.834;9.228;2022-09-02T05:49:59;15.70;99.90
10530;DHT22;5313;48.834;9.228;2022-09-02T05:52:27;15.20;99.90
10530;DHT22;5313;48.834;9.228;2022-09-02T05:54:53;15.00;99.90
10530;DHT22;5313;48.834;9.228;2022-09-02T05:57:20;16.20;99.90
10530;DHT22;5313;48.834;9.228;2022-09-02T05:59:45;16.50;99.90
10530;DHT22;5313;48.834;9.228;2022-09-02T06:02:14;16.40;99.90
10530;DHT22;5313;48.834;9.228;2022-09-02T06:04:43;15.90;99.90
10530;DHT22;5313;48.834;9.228;2022-09-02T06:07:10;15.80;99.90
10530;DHT22;5313;48.834;9.228;2022-09-02T06:09:35;15.40;99.90
10530;DHT22;5313;48.834;9.228;2022-09-02T06:12:01;15.40;99.90
10530;DHT22;5313;48.834;9.228;2022-09-02T06:14:27;15.00;99.90
10530;DHT22;5313;48.834;9.228;2022-09-02T06:16:54;15.10;99.90
10530;DHT22;5313;48.834;9.228;2022-09-02T06:19:20;15.70;99.90
10530;DHT22;5313;48.834;9.228;2022-09-02T06:21:48;16.10;99.90
10530;DHT22;5313;48.834;9.228;2022-09-02T06:24:13;16.10;99.90
10530;DHT22;5313;48.834;9.228;2022-09-02T06:26:40;16.00;99.90
10530;DHT22;5313;48.834;9.228;2022-09-02T06:29:06;16.40;99.90
10530;DHT22;5313;48.834;9.228;2022-09-02T06:31:32;16.60;99.90
10530;DHT22;5313;48.834;9.228;2022-09-02T06:33:59;16.70;99.90
10530;DHT22;5313;48.834;9.228;2022-09-02T06:36:27;16.80;99.90
10530;DHT22;5313;48.834;9.228;2022-09-02T06:38:55;17.30;99.90
10530;DHT22;5313;48.834;9.228;2022-09-02T06:41:25;16.70;99.90
10530;DHT22;5313;48.834;9.228;2022-09-02T06:43:55;16.70;99.90
10530;DHT22;5313;48.834;9.228;2022-09-02T06:46:25;17.60;99.90
10530;DHT22;5313;48.834;9.228;2022-09-02T06:48:50;17.60;99.90
10530;DHT22;5313;48.834;9.228;2022-09-02T06:51:22;17.70;99.90
10530;DHT22;5313;48.834;9.228;2022-09-02T06:53:47;17.60;99.90
10530;DHT22;5313;48.834;9.228;2022-09-02T06:56:13;17.60;99.90
10530;DHT22;5313;48.834;9.228;2022-09-02T06:58:39;17.40;99.90
10530;DHT22;5313;48.834;9.228;2022-09-02T07:01:05;17.30;99.90
10530;DHT22;5313;48.834;9.228;2022-09-02T07:03:32;17.20;99.90
10530;DHT22;5313;48.834;9.228;2022-09-02T07:06:16;17.60;99.90
10530;DHT22;5313;48.834;9.228;2022-09-02T07:08:42;17.20;99.90
10530;DHT22;5313;48.834;9.228;2022-09-02T07:11:21;17.40;99.90
10530;DHT22;5313;48.834;9.228;2022-09-02T07:13:49;17.10;99.90
10530;DHT22;5313;48.834;9.228;2022-09-02T07:16:16;17.50;99.90
10530;DHT22;5313;48.834;9.228;2022-09-02T07:18:42;17.30;99.90
10530;DHT22;5313;48.834;9.228;2022-09-02T07:21:11;17.60;99.90
10530;DHT22;5313;48.834;9.228;2022-09-02T07:23:37;17.40;99.90
10530;DHT22;5313;48.834;9.228;2022-09-02T07:26:03;17.40;99.90
10530;DHT22;5313;48.834;9.228;2022-09-02T07:28:29;18.00;99.90
10530;DHT22;5313;48.834;9.228;2022-09-02T07:30:54;17.70;99.90
10530;DHT22;5313;48.834;9.228;2022-09-02T07:33:21;17.80;99.90
10530;DHT22;5313;48.834;9.228;2022-09-02T07:35:47;17.90;99.90
10530;DHT22;5313;48.834;9.228;2022-09-02T07:38:14;18.50;99.90
10530;DHT22;5313;48.834;9.228;2022-09-02T07:40:40;18.80;99.90
10530;DHT22;5313;48.834;9.228;2022-09-02T07:43:08;18.90;99.90
10530;DHT22;5313;48.834;9.228;2022-09-02T07:45:36;18.90;99.90
10530;DHT22;5313;48.834;9.228;2022-09-02T07:48:03;18.80;99.90
10530;DHT22;5313;48.834;9.228;2022-09-02T07:50:32;18.50;99.90
10530;DHT22;5313;48.834;9.228;2022-09-02T07:52:58;18.50;99.90
10530;DHT22;5313;48.834;9.228;2022-09-02T07:55:24;18.30;99.90
10530;DHT22;5313;48.834;9.228;2022-09-02T07:57:50;18.60;99.90
10530;DHT22;5313;48.834;9.228;2022-09-02T08:00:17;18.70;99.90
10530;DHT22;5313;48.834;9.228;2022-09-02T08:02:44;18.80;99.90
10530;DHT22;5313;48.834;9.228;2022-09-02T08:05:11;18.80;99.90
10530;DHT22;5313;48.834;9.228;2022-09-02T08:07:37;18.90;99.90
10530;DHT22;5313;48.834;9.228;2022-09-02T08:10:05;18.90;99.90
10530;DHT22;5313;48.834;9.228;2022-09-02T08:12:31;19.30;99.90
10530;DHT22;5313;48.834;9.228;2022-09-02T08:14:57;19.20;99.90
10530;DHT22;5313;48.834;9.228;2022-09-02T08:17:23;19.30;99.90
10530;DHT22;5313;48.834;9.228;2022-09-02T08:19:49;19.50;99.90
10530;DHT22;5313;48.834;9.228;2022-09-02T08:22:14;19.60;99.90
10530;DHT22;5313;48.834;9.228;2022-09-02T08:24:40;19.60;99.90
10530;DHT22;5313;48.834;9.228;2022-09-02T08:27:05;19.50;99.90
10530;DHT22;5313;48.834;9.228;2022-09-02T08:29:31;19.40;99.90
10530;DHT22;5313;48.834;9.228;2022-09-02T08:31:56;19.70;99.90
10530;DHT22;5313;48.834;9.228;2022-09-02T08:34:22;19.90;99.90
10530;DHT22;5313;48.834;9.228;2022-09-02T08:36:47;19.90;99.90
10530;DHT22;5313;48.834;9.228;2022-09-02T08:39:13;19.70;99.90
10530;DHT22;5313;48.834;9.228;2022-09-02T08:44:09;19.90;99.90
10530;DHT22;5313;48.834;9.228;2022-09-02T08:46:38;20.10;99.90
10530;DHT22;5313;48.834;9.228;2022-09-02T08:49:07;20.20;99.90
10530;DHT22;5313;48.834;9.228;2022-09-02T08:51:39;20.50;99.90
10530;DHT22;5313;48.834;9.228;2022-09-02T08:54:17;20.50;99.90
10530;DHT22;5313;48.834;9.228;2022-09-02T08:56:45;20.40;99.90
10530;DHT22;5313;48.834;9.228;2022-09-02T08:59:12;20.30;99.90
10530;DHT22;5313;48.834;9.228;2022-09-02T09:02:05;20.30;99.90
10530;DHT22;5313;48.834;9.228;2022-09-02T09:04:44;20.50;99.90
10530;DHT22;5313;48.834;9.228;2022-09-02T09:17:47;21.30;99.90
10530;DHT22;5313;48.834;9.228;2022-09-02T09:20:21;21.10;99.90
10530;DHT22;5313;48.834;9.228;2022-09-02T09:22:48;21.20;99.90
10530;DHT22;5313;48.834;9.228;2022-09-02T09:25:15;21.10;99.90
10530;DHT22;5313;48.834;9.228;2022-09-02T09:27:42;21.20;99.90
10530;DHT22;5313;48.834;9.228;2022-09-02T09:30:10;21.30;99.90
10530;DHT22;5313;48.834;9.228;2022-09-02T09:32:42;21.50;99.90
10530;DHT22;5313;48.834;9.228;2022-09-02T09:35:10;21.60;99.90
10530;DHT22;5313;48.834;9.228;2022-09-02T09:37:49;21.90;99.90
10530;DHT22;5313;48.834;9.228;2022-09-02T09:45:19;21.90;99.90
10530;DHT22;5313;48.834;9.228;2022-09-02T09:50:45;22.10;99.90
10530;DHT22;5313;48.834;9.228;2022-09-02T09:55:55;22.30;99.20
10530;DHT22;5313;48.834;9.228;2022-09-02T09:58:32;22.40;98.50
10530;DHT22;5313;48.834;9.228;2022-09-02T10:04:28;22.70;95.70
10530;DHT22;5313;48.834;9.228;2022-09-02T10:11:28;22.90;96.30
10530;DHT22;5313;48.834;9.228;2022-09-02T10:14:02;22.90;94.90
10530;DHT22;5313;48.834;9.228;2022-09-02T10:19:47;23.20;94.00
10530;DHT22;5313;48.834;9.228;2022-09-02T10:22:49;23.30;93.30
10530;DHT22;5313;48.834;9.228;2022-09-02T10:31:10;23.40;92.20
10530;DHT22;5313;48.834;9.228;2022-09-02T10:36:43;24.00;88.00
10530;DHT22;5313;48.834;9.228;2022-09-02T10:41:57;23.60;84.40
10530;DHT22;5313;48.834;9.228;2022-09-02T10:44:43;23.60;83.60
10530;DHT22;5313;48.834;9.228;2022-09-02T10:47:19;23.80;82.50
10530;DHT22;5313;48.834;9.228;2022-09-02T10:52:59;23.90;80.40
10530;DHT22;5313;48.834;9.228;2022-09-02T10:58:32;24.00;81.40
10530;DHT22;5313;48.834;9.228;2022-09-02T11:01:01;24.20;82.30
10530;DHT22;5313;48.834;9.228;2022-09-02T11:03:36;24.30;78.00
10530;DHT22;5313;48.834;9.228;2022-09-02T11:06:11;24.20;80.60
10530;DHT22;5313;48.834;9.228;2022-09-02T11:09:00;24.70;78.30
10530;DHT22;5313;48.834;9.228;2022-09-02T11:11:39;24.90;77.80
10530;DHT22;5313;48.834;9.228;2022-09-02T11:14:23;24.80;76.60
10530;DHT22;5313;48.834;9.228;2022-09-02T11:16:54;24.70;74.80
10530;DHT22;5313;48.834;9.228;2022-09-02T11:19:32;24.40;74.00
10530;DHT22;5313;48.834;9.228;2022-09-02T11:24:43;25.00;74.00
10530;DHT22;5313;48.834;9.228;2022-09-02T11:27:27;24.70;71.00
10530;DHT22;5313;48.834;9.228;2022-09-02T11:29:56;24.20;74.60
10530;DHT22;5313;48.834;9.228;2022-09-02T11:35:23;24.50;70.60
10530;DHT22;5313;48.834;9.228;2022-09-02T11:41:00;24.60;70.30
10530;DHT22;5313;48.834;9.228;2022-09-02T11:43:46;25.10;70.30
10530;DHT22;5313;48.834;9.228;2022-09-02T11:49:32;25.20;68.80
10530;DHT22;5313;48.834;9.228;2022-09-02T11:54:42;24.40;67.00
10530;DHT22;5313;48.834;9.228;2022-09-02T11:57:14;24.10;68.90
10530;DHT22;5313;48.834;9.228;2022-09-02T12:02:50;24.30;69.60
10530;DHT22;5313;48.834;9.228;2022-09-02T12:07:57;25.00;70.00
10530;DHT22;5313;48.834;9.228;2022-09-02T12:13:08;25.20;69.10
10530;DHT22;5313;48.834;9.228;2022-09-02T12:15:34;25.60;65.80
10530;DHT22;5313;48.834;9.228;2022-09-02T12:18:27;26.00;66.60
10530;DHT22;5313;48.834;9.228;2022-09-02T12:31:46;26.50;62.90
10530;DHT22;5313;48.834;9.228;2022-09-02T12:36:55;26.80;59.10
10530;DHT22;5313;48.834;9.228;2022-09-02T12:42:01;25.80;60.00
10530;DHT22;5313;48.834;9.228;2022-09-02T12:44:34;25.80;62.00
10530;DHT22;5313;48.834;9.228;2022-09-02T12:58:05;25.90;61.00
10530;DHT22;5313;48.834;9.228;2022-09-02T13:03:38;26.80;60.10
10530;DHT22;5313;48.834;9.228;2022-09-02T13:06:43;27.10;59.40
10530;DHT22;5313;48.834;9.228;2022-09-02T13:12:16;26.70;59.00
10530;DHT22;5313;48.834;9.228;2022-09-02T13:15:24;26.80;59.90
10530;DHT22;5313;48.834;9.228;2022-09-02T13:32:41;25.80;61.10
10530;DHT22;5313;48.834;9.228;2022-09-02T13:34:51;25.90;61.80
10530;DHT22;5313;48.834;9.228;2022-09-02T13:37:32;26.20;61.50
10530;DHT22;5313;48.834;9.228;2022-09-02T13:39:58;26.60;61.30
10530;DHT22;5313;48.834;9.228;2022-09-02T13:42:28;26.90;60.40
10530;DHT22;5313;48.834;9.228;2022-09-02T13:45:13;27.40;59.60
10530;DHT22;5313;48.834;9.228;2022-09-02T13:47:47;27.40;59.20
10530;DHT22;5313;48.834;9.228;2022-09-02T13:50:17;26.70;59.60
10530;DHT22;5313;48.834;9.228;2022-09-02T13:52:46;26.30;61.10
10530;DHT22;5313;48.834;9.228;2022-09-02T13:55:13;26.80;61.20
10530;DHT22;5313;48.834;9.228;2022-09-02T13:58:02;26.90;60.10
10530;DHT22;5313;48.834;9.228;2022-09-02T14:00:35;26.20;60.00
10530;DHT22;5313;48.834;9.228;2022-09-02T14:03:19;26.40;61.00
10530;DHT22;5313;48.834;9.228;2022-09-02T14:05:48;27.60;58.30
10530;DHT22;5313;48.834;9.228;2022-09-02T14:08:17;27.70;58.90
10530;DHT22;5313;48.834;9.228;2022-09-02T14:10:43;26.80;59.40
10530;DHT22;5313;48.834;9.228;2022-09-02T14:13:10;27.30;58.30
10530;DHT22;5313;48.834;9.228;2022-09-02T14:15:36;26.70;59.10
10530;DHT22;5313;48.834;9.228;2022-09-02T14:18:18;27.20;59.60
10530;DHT22;5313;48.834;9.228;2022-09-02T14:21:15;27.30;58.40
10530;DHT22;5313;48.834;9.228;2022-09-02T14:23:49;26.30;60.50
10530;DHT22;5313;48.834;9.228;2022-09-02T14:26:28;26.30;60.10
10530;DHT22;5313;48.834;9.228;2022-09-02T14:28:56;26.00;61.70
10530;DHT22;5313;48.834;9.228;2022-09-02T14:31:24;26.10;61.20
10530;DHT22;5313;48.834;9.228;2022-09-02T14:33:52;26.80;59.30
10530;DHT22;5313;48.834;9.228;2022-09-02T14:46:21;27.10;58.70
10530;DHT22;5313;48.834;9.228;2022-09-02T14:48:53;26.80;59.20
10530;DHT22;5313;48.834;9.228;2022-09-02T14:51:21;26.50;58.80
10530;DHT22;5313;48.834;9.228;2022-09-02T14:53:46;26.30;59.80
10530;DHT22;5313;48.834;9.228;2022-09-02T14:56:12;25.80;61.90
10530;DHT22;5313;48.834;9.228;2022-09-02T14:58:37;25.50;62.90
10530;DHT22;5313;48.834;9.228;2022-09-02T15:01:03;25.70;63.90
10530;DHT22;5313;48.834;9.228;2022-09-02T15:03:35;25.30;63.20
10530;DHT22;5313;48.834;9.228;2022-09-02T15:06:01;25.40;64.40
10530;DHT22;5313;48.834;9.228;2022-09-02T15:08:26;25.50;63.50
10530;DHT22;5313;48.834;9.228;2022-09-02T15:10:53;25.50;64.20
10530;DHT22;5313;48.834;9.228;2022-09-02T15:13:28;25.20;65.40
10530;DHT22;5313;48.834;9.228;2022-09-02T15:15:54;25.20;65.10
10530;DHT22;5313;48.834;9.228;2022-09-02T15:18:21;25.20;66.40
10530;DHT22;5313;48.834;9.228;2022-09-02T15:20:47;25.10;66.70
10530;DHT22;5313;48.834;9.228;2022-09-02T15:23:14;25.20;66.10
10530;DHT22;5313;48.834;9.228;2022-09-02T15:25:39;25.10;65.70
10530;DHT22;5313;48.834;9.228;2022-09-02T15:28:05;24.90;66.80
10530;DHT22;5313;48.834;9.228;2022-09-02T15:30:33;25.10;66.70
10530;DHT22;5313;48.834;9.228;2022-09-02T15:33:05;25.00;67.40
10530;DHT22;5313;48.834;9.228;2022-09-02T15:35:32;24.90;67.00
10530;DHT22;5313;48.834;9.228;2022-09-02T15:37:59;24.80;66.40
10530;DHT22;5313;48.834;9.228;2022-09-02T15:40:26;24.80;66.20
10530;DHT22;5313;48.834;9.228;2022-09-02T15:42:52;24.70;66.20
10530;DHT22;5313;48.834;9.228;2022-09-02T15:45:18;24.60;66.30
10530;DHT22;5313;48.834;9.228;2022-09-02T15:47:44;24.30;66.90
10530;DHT22;5313;48.834;9.228;2022-09-02T15:50:09;24.40;67.30
10530;DHT22;5313;48.834;9.228;2022-09-02T15:52:36;24.40;67.70
10530;DHT22;5313;48.834;9.228;2022-09-02T15:55:02;24.60;69.60
10530;DHT22;5313;48.834;9.228;2022-09-02T15:57:27;24.60;67.20
10530;DHT22;5313;48.834;9.228;2022-09-02T15:59:55;24.60;67.30
10530;DHT22;5313;48.834;9.228;2022-09-02T16:02:20;24.70;67.50
10530;DHT22;5313;48.834;9.228;2022-09-02T16:04:46;24.60;66.90
10530;DHT22;5313;48.834;9.228;2022-09-02T16:07:11;24.60;67.40
10530;DHT22;5313;48.834;9.228;2022-09-02T16:09:37;24.50;67.90
10530;DHT22;5313;48.834;9.228;2022-09-02T16:12:02;24.50;69.70
10530;DHT22;5313;48.834;9.228;2022-09-02T16:14:30;24.50;69.00
10530;DHT22;5313;48.834;9.228;2022-09-02T16:16:55;24.50;68.30
10530;DHT22;5313;48.834;9.228;2022-09-02T16:19:23;24.30;69.00
10530;DHT22;5313;48.834;9.228;2022-09-02T16:21:50;24.30;68.50
10530;DHT22;5313;48.834;9.228;2022-09-02T16:24:16;24.40;68.90
10530;DHT22;5313;48.834;9.228;2022-09-02T16:26:42;24.40;68.50
10530;DHT22;5313;48.834;9.228;2022-09-02T16:29:11;24.30;69.70
10530;DHT22;5313;48.834;9.228;2022-09-02T16:31:42;24.10;69.40
10530;DHT22;5313;48.834;9.228;2022-09-02T16:34:10;24.00;70.20
10530;DHT22;5313;48.834;9.228;2022-09-02T16:36:38;24.00;70.50
10530;DHT22;5313;48.834;9.228;2022-09-02T16:39:05;23.90;71.00
10530;DHT22;5313;48.834;9.228;2022-09-02T16:41:42;23.90;71.10
10530;DHT22;5313;48.834;9.228;2022-09-02T16:44:11;24.00;71.70
10530;DHT22;5313;48.834;9.228;2022-09-02T16:46:37;23.80;72.40
10530;DHT22;5313;48.834;9.228;2022-09-02T16:49:05;23.70;73.80
10530;DHT22;5313;48.834;9.228;2022-09-02T16:51:31;23.70;73.90
10530;DHT22;5313;48.834;9.228;2022-09-02T16:53:59;23.70;72.60
10530;DHT22;5313;48.834;9.228;2022-09-02T16:56:25;23.70;72.90
10530;DHT22;5313;48.834;9.228;2022-09-02T16:58:52;23.80;73.30
10530;DHT22;5313;48.834;9.228;2022-09-02T17:01:18;23.80;74.00
10530;DHT22;5313;48.834;9.228;2022-09-02T17:03:45;23.70;74.70
10530;DHT22;5313;48.834;9.228;2022-09-02T17:06:11;23.70;75.90
10530;DHT22;5313;48.834;9.228;2022-09-02T17:08:37;23.70;74.90
10530;DHT22;5313;48.834;9.228;2022-09-02T17:13:45;23.80;73.30
10530;DHT22;5313;48.834;9.228;2022-09-02T17:16:12;23.70;75.20
10530;DHT22;5313;48.834;9.228;2022-09-02T17:18:37;23.70;75.70
10530;DHT22;5313;48.834;9.228;2022-09-02T17:21:38;23.60;75.90
10530;DHT22;5313;48.834;9.228;2022-09-02T17:24:06;23.50;76.20
10530;DHT22;5313;48.834;9.228;2022-09-02T17:26:34;23.30;77.70
10530;DHT22;5313;48.834;9.228;2022-09-02T17:29:06;23.20;76.90
10530;DHT22;5313;48.834;9.228;2022-09-02T17:31:32;23.30;76.50
10530;DHT22;5313;48.834;9.228;2022-09-02T17:34:00;23.30;76.80
10530;DHT22;5313;48.834;9.228;2022-09-02T17:36:27;23.30;77.90
10530;DHT22;5313;48.834;9.228;2022-09-02T17:39:01;23.20;78.60
10530;DHT22;5313;48.834;9.228;2022-09-02T17:41:26;23.00;80.10
10530;DHT22;5313;48.834;9.228;2022-09-02T17:44:11;23.00;79.80
10530;DHT22;5313;48.834;9.228;2022-09-02T17:46:38;23.00;80.40
10530;DHT22;5313;48.834;9.228;2022-09-02T17:49:03;22.90;81.30
10530;DHT22;5313;48.834;9.228;2022-09-02T17:51:30;22.80;81.30
10530;DHT22;5313;48.834;9.228;2022-09-02T17:53:55;22.70;81.90
10530;DHT22;5313;48.834;9.228;2022-09-02T17:57:01;22.70;83.10
10530;DHT22;5313;48.834;9.228;2022-09-02T18:08:14;22.40;85.60
10530;DHT22;5313;48.834;9.228;2022-09-02T18:10:53;22.30;85.40
10530;DHT22;5313;48.834;9.228;2022-09-02T18:13:48;22.20;86.70
10530;DHT22;5313;48.834;9.228;2022-09-02T18:19:12;22.00;89.80
10530;DHT22;5313;48.834;9.228;2022-09-02T18:36:20;21.60;92.00
10530;DHT22;5313;48.834;9.228;2022-09-02T18:41:46;21.60;92.90